sensor_id;sensor_type;location;lat;lon;timestamp;P1;durP1;ratioP1;P2;durP2;ratioP2
9763;SDS011;4921;43.214;27.936;2023-02-15T00:01:31;12.70;;;9.47;;
9763;SDS011;4921;43.214;27.936;2023-02-15T00:03:58;11.50;;;9.10;;
9763;SDS011;4921;43.214;27.936;2023-02-15T00:06:25;13.37;;;9.67;;
9763;SDS011;4921;43.214;27.936;2023-02-15T00:08:53;11.03;;;9.07;;
9763;SDS011;4921;43.214;27.936;2023-02-15T00:11:20;13.70;;;9.87;;
9763;SDS011;4921;43.214;27.936;2023-02-15T00:14:03;9.53;;;8.57;;
9763;SDS011;4921;43.214;27.936;2023-02-15T00:16:30;12.50;;;8.77;;
9763;SDS011;4921;43.214;27.936;2023-02-15T00:18:57;10.30;;;8.97;;
9763;SDS011;4921;43.214;27.936;2023-02-15T00:21:27;12.87;;;9.93;;
9763;SDS011;4921;43.214;27.936;2023-02-15T00:23:54;10.27;;;8.50;;
9763;SDS011;4921;43.214;27.936;2023-02-15T00:26:20;13.00;;;9.80;;
9763;SDS011;4921;43.214;27.936;2023-02-15T00:28:47;11.63;;;9.23;;
9763;SDS011;4921;43.214;27.936;2023-02-15T00:31:16;10.77;;;9.23;;
9763;SDS011;4921;43.214;27.936;2023-02-15T00:33:43;14.87;;;9.83;;
9763;SDS011;4921;43.214;27.936;2023-02-15T00:36:10;11.37;;;9.50;;
9763;SDS011;4921;43.214;27.936;2023-02-15T00:38:37;11.40;;;9.90;;
9763;SDS011;4921;43.214;27.936;2023-02-15T00:41:06;13.43;;;9.60;;
9763;SDS011;4921;43.214;27.936;2023-02-15T00:43:33;11.33;;;9.07;;
9763;SDS011;4921;43.214;27.936;2023-02-15T00:46:01;9.67;;;8.33;;
9763;SDS011;4921;43.214;27.936;2023-02-15T00:48:31;12.63;;;8.67;;
9763;SDS011;4921;43.214;27.936;2023-02-15T00:50:58;10.37;;;8.73;;
9763;SDS011;4921;43.214;27.936;2023-02-15T00:53:26;12.63;;;8.93;;
9763;SDS011;4921;43.214;27.936;2023-02-15T00:55:54;11.07;;;8.47;;
9763;SDS011;4921;43.214;27.936;2023-02-15T00:58:22;10.93;;;8.50;;
9763;SDS011;4921;43.214;27.936;2023-02-15T01:00:49;9.60;;;8.60;;
9763;SDS011;4921;43.214;27.936;2023-02-15T01:03:17;9.53;;;8.30;;
9763;SDS011;4921;43.214;27.936;2023-02-15T01:05:47;12.17;;;9.07;;
9763;SDS011;4921;43.214;27.936;2023-02-15T01:08:17;13.33;;;8.67;;
9763;SDS011;4921;43.214;27.936;2023-02-15T01:10:44;12.13;;;9.23;;
9763;SDS011;4921;43.214;27.936;2023-02-15T01:13:12;10.27;;;8.53;;
9763;SDS011;4921;43.214;27.936;2023-02-15T01:15:41;12.43;;;8.57;;
9763;SDS011;4921;43.214;27.936;2023-02-15T01:18:08;11.43;;;8.30;;
9763;SDS011;4921;43.214;27.936;2023-02-15T01:20:36;11.07;;;8.97;;
9763;SDS011;4921;43.214;27.936;2023-02-15T01:23:09;8.87;;;7.97;;
9763;SDS011;4921;43.214;27.936;2023-02-15T01:25:36;10.87;;;8.83;;
9763;SDS011;4921;43.214;27.936;2023-02-15T01:28:03;11.67;;;8.87;;
9763;SDS011;4921;43.214;27.936;2023-02-15T01:30:30;10.50;;;8.47;;
9763;SDS011;4921;43.214;27.936;2023-02-15T01:32:58;11.73;;;9.07;;
9763;SDS011;4921;43.214;27.936;2023-02-15T01:35:26;11.97;;;8.70;;
9763;SDS011;4921;43.214;27.936;2023-02-15T01:37:56;10.50;;;8.87;;
9763;SDS011;4921;43.214;27.936;2023-02-15T01:40:24;13.10;;;8.87;;
9763;SDS011;4921;43.214;27.936;2023-02-15T01:42:52;14.03;;;9.60;;
9763;SDS011;4921;43.214;27.936;2023-02-15T01:45:22;12.20;;;8.97;;
9763;SDS011;4921;43.214;27.936;2023-02-15T01:47:52;14.03;;;8.97;;
9763;SDS011;4921;43.214;27.936;2023-02-15T01:50:26;10.97;;;9.37;;
9763;SDS011;4921;43.214;27.936;2023-02-15T01:52:58;11.10;;;9.07;;
9763;SDS011;4921;43.214;27.936;2023-02-15T01:55:32;11.00;;;8.60;;
9763;SDS011;4921;43.214;27.936;2023-02-15T01:58:02;11.60;;;8.70;;
9763;SDS011;4921;43.214;27.936;2023-02-15T02:00:30;11.50;;;9.50;;
9763;SDS011;4921;43.214;27.936;2023-02-15T02:02:58;11.60;;;9.50;;
9763;SDS011;4921;43.214;27.936;2023-02-15T02:05:25;11.80;;;8.13;;
9763;SDS011;4921;43.214;27.936;2023-02-15T02:07:53;11.77;;;9.07;;
9763;SDS011;4921;43.214;27.936;2023-02-15T02:10:23;12.40;;;9.67;;
9763;SDS011;4921;43.214;27.936;2023-02-15T02:12:53;13.27;;;9.80;;
9763;SDS011;4921;43.214;27.936;2023-02-15T02:15:24;13.83;;;10.07;;
9763;SDS011;4921;43.214;27.936;2023-02-15T02:18:03;11.93;;;9.17;;
9763;SDS011;4921;43.214;27.936;2023-02-15T02:21:05;10.93;;;8.90;;
9763;SDS011;4921;43.214;27.936;2023-02-15T02:23:56;10.50;;;8.80;;
9763;SDS011;4921;43.214;27.936;2023-02-15T02:27:12;13.73;;;9.40;;
9763;SDS011;4921;43.214;27.936;2023-02-15T02:30:09;11.47;;;9.50;;
9763;SDS011;4921;43.214;27.936;2023-02-15T02:36:11;11.93;;;9.97;;
9763;SDS011;4921;43.214;27.936;2023-02-15T02:38:50;13.43;;;9.80;;
9763;SDS011;4921;43.214;27.936;2023-02-15T02:41:26;11.73;;;9.30;;
9763;SDS011;4921;43.214;27.936;2023-02-15T02:43:59;13.57;;;8.90;;
9763;SDS011;4921;43.214;27.936;2023-02-15T02:46:36;12.77;;;9.80;;
9763;SDS011;4921;43.214;27.936;2023-02-15T02:49:12;12.43;;;9.77;;
9763;SDS011;4921;43.214;27.936;2023-02-15T02:51:39;15.17;;;9.13;;
9763;SDS011;4921;43.214;27.936;2023-02-15T02:54:06;12.23;;;9.07;;
9763;SDS011;4921;43.214;27.936;2023-02-15T02:56:35;12.73;;;9.10;;
9763;SDS011;4921;43.214;27.936;2023-02-15T02:59:06;13.43;;;9.97;;
9763;SDS011;4921;43.214;27.936;2023-02-15T03:01:38;12.27;;;9.47;;
9763;SDS011;4921;43.214;27.936;2023-02-15T03:04:09;10.43;;;8.63;;
9763;SDS011;4921;43.214;27.936;2023-02-15T03:06:42;15.47;;;9.47;;
9763;SDS011;4921;43.214;27.936;2023-02-15T03:09:14;15.83;;;9.43;;
9763;SDS011;4921;43.214;27.936;2023-02-15T03:11:45;12.03;;;8.53;;
9763;SDS011;4921;43.214;27.936;2023-02-15T03:14:13;11.20;;;8.97;;
9763;SDS011;4921;43.214;27.936;2023-02-15T03:16:42;10.77;;;8.30;;
9763;SDS011;4921;43.214;27.936;2023-02-15T03:19:13;12.13;;;9.63;;
9763;SDS011;4921;43.214;27.936;2023-02-15T03:21:46;10.43;;;9.20;;
9763;SDS011;4921;43.214;27.936;2023-02-15T03:24:23;13.27;;;8.73;;
9763;SDS011;4921;43.214;27.936;2023-02-15T03:26:52;10.50;;;8.73;;
9763;SDS011;4921;43.214;27.936;2023-02-15T03:29:22;11.77;;;8.57;;
9763;SDS011;4921;43.214;27.936;2023-02-15T03:31:54;13.50;;;9.07;;
9763;SDS011;4921;43.214;27.936;2023-02-15T03:34:26;12.33;;;8.10;;
9763;SDS011;4921;43.214;27.936;2023-02-15T03:36:56;11.57;;;8.83;;
9763;SDS011;4921;43.214;27.936;2023-02-15T03:39:30;11.10;;;8.53;;
9763;SDS011;4921;43.214;27.936;2023-02-15T03:42:03;12.03;;;9.10;;
9763;SDS011;4921;43.214;27.936;2023-02-15T03:44:37;9.63;;;8.00;;
9763;SDS011;4921;43.214;27.936;2023-02-15T03:47:13;11.40;;;8.70;;
9763;SDS011;4921;43.214;27.936;2023-02-15T03:49:45;11.50;;;8.57;;
9763;SDS011;4921;43.214;27.936;2023-02-15T03:52:20;10.13;;;8.30;;
9763;SDS011;4921;43.214;27.936;2023-02-15T03:54:47;9.93;;;7.73;;
9763;SDS011;4921;43.214;27.936;2023-02-15T03:57:17;14.60;;;8.80;;
9763;SDS011;4921;43.214;27.936;2023-02-15T04:00:04;13.93;;;8.73;;
9763;SDS011;4921;43.214;27.936;2023-02-15T04:03:00;11.10;;;8.27;;
9763;SDS011;4921;43.214;27.936;2023-02-15T04:05:47;11.10;;;8.63;;
9763;SDS011;4921;43.214;27.936;2023-02-15T04:08:15;11.60;;;7.80;;
9763;SDS011;4921;43.214;27.936;2023-02-15T04:10:42;10.23;;;8.67;;
9763;SDS011;4921;43.214;27.936;2023-02-15T04:13:17;11.93;;;8.33;;
9763;SDS011;4921;43.214;27.936;2023-02-15T04:15:44;12.07;;;8.97;;
9763;SDS011;4921;43.214;27.936;2023-02-15T04:18:29;12.80;;;8.90;;
9763;SDS011;4921;43.214;27.936;2023-02-15T04:21:14;10.67;;;7.77;;
9763;SDS011;4921;43.214;27.936;2023-02-15T04:23:59;14.10;;;8.00;;
9763;SDS011;4921;43.214;27.936;2023-02-15T04:26:43;12.67;;;8.63;;
9763;SDS011;4921;43.214;27.936;2023-02-15T04:29:12;11.40;;;8.47;;
9763;SDS011;4921;43.214;27.936;2023-02-15T04:31:39;10.87;;;8.27;;
9763;SDS011;4921;43.214;27.936;2023-02-15T04:34:08;10.43;;;8.00;;
9763;SDS011;4921;43.214;27.936;2023-02-15T04:36:35;12.73;;;8.70;;
9763;SDS011;4921;43.214;27.936;2023-02-15T04:39:03;12.57;;;7.87;;
9763;SDS011;4921;43.214;27.936;2023-02-15T04:41:30;9.07;;;8.07;;
9763;SDS011;4921;43.214;27.936;2023-02-15T04:43:57;11.53;;;9.07;;
9763;SDS011;4921;43.214;27.936;2023-02-15T04:46:25;8.70;;;7.50;;
9763;SDS011;4921;43.214;27.936;2023-02-15T04:48:53;11.50;;;8.93;;
9763;SDS011;4921;43.214;27.936;2023-02-15T04:51:20;11.90;;;8.47;;
9763;SDS011;4921;43.214;27.936;2023-02-15T04:53:47;11.30;;;8.03;;
9763;SDS011;4921;43.214;27.936;2023-02-15T04:56:15;13.70;;;8.87;;
9763;SDS011;4921;43.214;27.936;2023-02-15T04:58:42;13.57;;;8.67;;
9763;SDS011;4921;43.214;27.936;2023-02-15T05:01:09;11.63;;;8.27;;
9763;SDS011;4921;43.214;27.936;2023-02-15T05:03:36;14.33;;;8.77;;
9763;SDS011;4921;43.214;27.936;2023-02-15T05:06:03;12.73;;;9.00;;
9763;SDS011;4921;43.214;27.936;2023-02-15T05:08:31;20.10;;;13.97;;
9763;SDS011;4921;43.214;27.936;2023-02-15T05:11:01;18.43;;;11.63;;
9763;SDS011;4921;43.214;27.936;2023-02-15T05:13:30;14.93;;;9.77;;
9763;SDS011;4921;43.214;27.936;2023-02-15T05:15:57;11.57;;;8.37;;
9763;SDS011;4921;43.214;27.936;2023-02-15T05:18:23;10.97;;;8.13;;
9763;SDS011;4921;43.214;27.936;2023-02-15T05:20:50;10.63;;;8.00;;
9763;SDS011;4921;43.214;27.936;2023-02-15T05:23:17;10.67;;;8.40;;
9763;SDS011;4921;43.214;27.936;2023-02-15T05:25:46;11.63;;;9.50;;
9763;SDS011;4921;43.214;27.936;2023-02-15T05:28:32;14.47;;;8.97;;
9763;SDS011;4921;43.214;27.936;2023-02-15T05:31:01;16.37;;;8.53;;
9763;SDS011;4921;43.214;27.936;2023-02-15T05:33:31;13.70;;;8.57;;
9763;SDS011;4921;43.214;27.936;2023-02-15T05:35:58;12.10;;;9.03;;
9763;SDS011;4921;43.214;27.936;2023-02-15T05:38:26;11.77;;;8.40;;
9763;SDS011;4921;43.214;27.936;2023-02-15T05:40:53;13.13;;;8.40;;
9763;SDS011;4921;43.214;27.936;2023-02-15T05:43:20;13.67;;;9.30;;
9763;SDS011;4921;43.214;27.936;2023-02-15T05:45:49;15.00;;;9.20;;
9763;SDS011;4921;43.214;27.936;2023-02-15T05:48:17;14.13;;;8.60;;
9763;SDS011;4921;43.214;27.936;2023-02-15T05:50:45;12.63;;;8.57;;
9763;SDS011;4921;43.214;27.936;2023-02-15T05:53:12;9.70;;;8.10;;
9763;SDS011;4921;43.214;27.936;2023-02-15T05:55:39;11.00;;;8.37;;
9763;SDS011;4921;43.214;27.936;2023-02-15T05:58:07;11.33;;;8.43;;
9763;SDS011;4921;43.214;27.936;2023-02-15T06:00:34;10.30;;;7.87;;
9763;SDS011;4921;43.214;27.936;2023-02-15T06:03:02;11.90;;;8.70;;
9763;SDS011;4921;43.214;27.936;2023-02-15T06:05:29;11.23;;;8.47;;
9763;SDS011;4921;43.214;27.936;2023-02-15T06:07:56;13.20;;;9.07;;
9763;SDS011;4921;43.214;27.936;2023-02-15T06:10:23;11.70;;;8.30;;
9763;SDS011;4921;43.214;27.936;2023-02-15T06:12:50;10.97;;;8.37;;
9763;SDS011;4921;43.214;27.936;2023-02-15T06:15:17;12.97;;;7.87;;
9763;SDS011;4921;43.214;27.936;2023-02-15T06:17:44;13.83;;;8.30;;
9763;SDS011;4921;43.214;27.936;2023-02-15T06:20:12;14.77;;;9.27;;
9763;SDS011;4921;43.214;27.936;2023-02-15T06:22:39;17.03;;;8.40;;
9763;SDS011;4921;43.214;27.936;2023-02-15T06:25:06;10.17;;;8.13;;
9763;SDS011;4921;43.214;27.936;2023-02-15T06:27:36;10.40;;;7.30;;
9763;SDS011;4921;43.214;27.936;2023-02-15T06:30:04;11.27;;;8.90;;
9763;SDS011;4921;43.214;27.936;2023-02-15T06:32:32;12.97;;;7.90;;
9763;SDS011;4921;43.214;27.936;2023-02-15T06:34:59;11.90;;;8.63;;
9763;SDS011;4921;43.214;27.936;2023-02-15T06:37:27;10.97;;;8.07;;
9763;SDS011;4921;43.214;27.936;2023-02-15T06:39:55;11.60;;;8.27;;
9763;SDS011;4921;43.214;27.936;2023-02-15T06:42:23;12.47;;;8.53;;
9763;SDS011;4921;43.214;27.936;2023-02-15T06:44:50;11.90;;;8.60;;
9763;SDS011;4921;43.214;27.936;2023-02-15T06:47:16;13.27;;;8.13;;
9763;SDS011;4921;43.214;27.936;2023-02-15T06:49:43;9.80;;;7.77;;
9763;SDS011;4921;43.214;27.936;2023-02-15T06:52:10;10.40;;;7.33;;
9763;SDS011;4921;43.214;27.936;2023-02-15T06:54:39;8.43;;;7.47;;
9763;SDS011;4921;43.214;27.936;2023-02-15T06:57:05;10.53;;;7.10;;
9763;SDS011;4921;43.214;27.936;2023-02-15T06:59:34;9.67;;;7.37;;
9763;SDS011;4921;43.214;27.936;2023-02-15T07:02:02;10.50;;;7.50;;
9763;SDS011;4921;43.214;27.936;2023-02-15T07:04:29;8.97;;;7.10;;
9763;SDS011;4921;43.214;27.936;2023-02-15T07:06:55;9.17;;;7.30;;
9763;SDS011;4921;43.214;27.936;2023-02-15T07:09:22;10.20;;;6.73;;
9763;SDS011;4921;43.214;27.936;2023-02-15T07:11:51;14.13;;;7.17;;
9763;SDS011;4921;43.214;27.936;2023-02-15T07:14:36;9.40;;;7.00;;
9763;SDS011;4921;43.214;27.936;2023-02-15T07:17:03;10.90;;;7.40;;
9763;SDS011;4921;43.214;27.936;2023-02-15T07:19:29;9.57;;;6.73;;
9763;SDS011;4921;43.214;27.936;2023-02-15T07:21:56;11.53;;;7.13;;
9763;SDS011;4921;43.214;27.936;2023-02-15T07:24:23;10.23;;;5.83;;
9763;SDS011;4921;43.214;27.936;2023-02-15T07:26:52;12.00;;;6.40;;
9763;SDS011;4921;43.214;27.936;2023-02-15T07:29:19;8.13;;;7.03;;
9763;SDS011;4921;43.214;27.936;2023-02-15T07:31:46;9.97;;;7.17;;
9763;SDS011;4921;43.214;27.936;2023-02-15T07:34:13;9.47;;;6.93;;
9763;SDS011;4921;43.214;27.936;2023-02-15T07:36:41;9.37;;;6.20;;
9763;SDS011;4921;43.214;27.936;2023-02-15T07:39:09;10.67;;;6.80;;
9763;SDS011;4921;43.214;27.936;2023-02-15T07:41:36;8.90;;;6.87;;
9763;SDS011;4921;43.214;27.936;2023-02-15T07:44:04;9.03;;;7.07;;
9763;SDS011;4921;43.214;27.936;2023-02-15T07:46:31;8.67;;;7.20;;
9763;SDS011;4921;43.214;27.936;2023-02-15T07:48:58;9.57;;;7.00;;
9763;SDS011;4921;43.214;27.936;2023-02-15T07:51:25;12.70;;;7.43;;
9763;SDS011;4921;43.214;27.936;2023-02-15T07:53:52;12.80;;;7.40;;
9763;SDS011;4921;43.214;27.936;2023-02-15T07:56:19;9.33;;;6.93;;
9763;SDS011;4921;43.214;27.936;2023-02-15T07:58:46;10.30;;;7.10;;
9763;SDS011;4921;43.214;27.936;2023-02-15T08:01:23;9.00;;;6.80;;
9763;SDS011;4921;43.214;27.936;2023-02-15T08:03:52;9.50;;;7.10;;
9763;SDS011;4921;43.214;27.936;2023-02-15T08:06:19;9.77;;;6.80;;
9763;SDS011;4921;43.214;27.936;2023-02-15T08:08:47;6.77;;;5.70;;
9763;SDS011;4921;43.214;27.936;2023-02-15T08:11:15;7.73;;;6.60;;
9763;SDS011;4921;43.214;27.936;2023-02-15T08:13:58;8.17;;;6.03;;
9763;SDS011;4921;43.214;27.936;2023-02-15T08:16:30;9.77;;;6.60;;
9763;SDS011;4921;43.214;27.936;2023-02-15T08:18:59;9.33;;;6.77;;
9763;SDS011;4921;43.214;27.936;2023-02-15T08:21:29;7.70;;;6.60;;
9763;SDS011;4921;43.214;27.936;2023-02-15T08:23:56;8.10;;;6.33;;
9763;SDS011;4921;43.214;27.936;2023-02-15T08:26:24;7.03;;;6.33;;
9763;SDS011;4921;43.214;27.936;2023-02-15T08:28:53;7.63;;;6.33;;
9763;SDS011;4921;43.214;27.936;2023-02-15T08:31:20;12.07;;;6.53;;
9763;SDS011;4921;43.214;27.936;2023-02-15T08:33:51;9.77;;;6.87;;
9763;SDS011;4921;43.214;27.936;2023-02-15T08:36:20;8.80;;;7.60;;
9763;SDS011;4921;43.214;27.936;2023-02-15T08:38:48;11.43;;;7.00;;
9763;SDS011;4921;43.214;27.936;2023-02-15T08:41:16;11.13;;;6.43;;
9763;SDS011;4921;43.214;27.936;2023-02-15T08:43:44;13.27;;;7.00;;
9763;SDS011;4921;43.214;27.936;2023-02-15T08:46:13;12.93;;;7.53;;
9763;SDS011;4921;43.214;27.936;2023-02-15T08:48:41;8.33;;;6.47;;
9763;SDS011;4921;43.214;27.936;2023-02-15T08:51:11;11.03;;;6.73;;
9763;SDS011;4921;43.214;27.936;2023-02-15T08:53:40;6.70;;;5.97;;
9763;SDS011;4921;43.214;27.936;2023-02-15T08:56:09;10.03;;;7.27;;
9763;SDS011;4921;43.214;27.936;2023-02-15T08:58:37;10.07;;;6.13;;
9763;SDS011;4921;43.214;27.936;2023-02-15T09:01:08;8.20;;;6.97;;
9763;SDS011;4921;43.214;27.936;2023-02-15T09:03:37;7.97;;;7.00;;
9763;SDS011;4921;43.214;27.936;2023-02-15T09:06:04;9.27;;;6.90;;
9763;SDS011;4921;43.214;27.936;2023-02-15T09:08:33;9.33;;;5.97;;
9763;SDS011;4921;43.214;27.936;2023-02-15T09:11:07;9.87;;;6.53;;
9763;SDS011;4921;43.214;27.936;2023-02-15T09:13:36;8.47;;;6.03;;
9763;SDS011;4921;43.214;27.936;2023-02-15T09:16:05;8.83;;;6.47;;
9763;SDS011;4921;43.214;27.936;2023-02-15T09:18:34;23.47;;;7.37;;
9763;SDS011;4921;43.214;27.936;2023-02-15T09:21:03;6.63;;;5.93;;
9763;SDS011;4921;43.214;27.936;2023-02-15T09:23:33;10.07;;;6.23;;
9763;SDS011;4921;43.214;27.936;2023-02-15T09:26:07;8.57;;;6.40;;
9763;SDS011;4921;43.214;27.936;2023-02-15T09:28:35;9.70;;;6.27;;
9763;SDS011;4921;43.214;27.936;2023-02-15T09:31:06;9.90;;;6.40;;
9763;SDS011;4921;43.214;27.936;2023-02-15T09:33:35;9.63;;;6.07;;
9763;SDS011;4921;43.214;27.936;2023-02-15T09:36:02;8.33;;;6.90;;
9763;SDS011;4921;43.214;27.936;2023-02-15T09:41:10;8.43;;;5.73;;
9763;SDS011;4921;43.214;27.936;2023-02-15T09:43:54;7.57;;;5.67;;
9763;SDS011;4921;43.214;27.936;2023-02-15T09:46:35;8.67;;;6.53;;
9763;SDS011;4921;43.214;27.936;2023-02-15T09:49:16;6.70;;;5.87;;
9763;SDS011;4921;43.214;27.936;2023-02-15T09:57:06;10.17;;;5.83;;
9763;SDS011;4921;43.214;27.936;2023-02-15T09:59:41;8.60;;;6.13;;
9763;SDS011;4921;43.214;27.936;2023-02-15T10:02:24;11.43;;;6.30;;
9763;SDS011;4921;43.214;27.936;2023-02-15T10:05:08;6.63;;;5.50;;
9763;SDS011;4921;43.214;27.936;2023-02-15T10:07:50;7.87;;;6.60;;
9763;SDS011;4921;43.214;27.936;2023-02-15T10:10:30;7.23;;;6.30;;
9763;SDS011;4921;43.214;27.936;2023-02-15T10:13:21;7.13;;;6.23;;
9763;SDS011;4921;43.214;27.936;2023-02-15T10:16:00;13.03;;;6.83;;
9763;SDS011;4921;43.214;27.936;2023-02-15T10:18:43;9.63;;;6.00;;
9763;SDS011;4921;43.214;27.936;2023-02-15T10:21:21;9.33;;;6.33;;
9763;SDS011;4921;43.214;27.936;2023-02-15T10:31:34;12.67;;;7.10;;
9763;SDS011;4921;43.214;27.936;2023-02-15T10:36:58;8.60;;;6.87;;
9763;SDS011;4921;43.214;27.936;2023-02-15T10:39:40;9.90;;;6.90;;
9763;SDS011;4921;43.214;27.936;2023-02-15T10:42:18;10.03;;;7.40;;
9763;SDS011;4921;43.214;27.936;2023-02-15T10:47:33;11.83;;;7.77;;
9763;SDS011;4921;43.214;27.936;2023-02-15T10:53:05;7.53;;;6.67;;
9763;SDS011;4921;43.214;27.936;2023-02-15T10:55:45;9.03;;;7.50;;
9763;SDS011;4921;43.214;27.936;2023-02-15T10:58:21;9.27;;;8.10;;
9763;SDS011;4921;43.214;27.936;2023-02-15T11:01:00;11.43;;;7.73;;
9763;SDS011;4921;43.214;27.936;2023-02-15T11:03:39;10.33;;;7.37;;
9763;SDS011;4921;43.214;27.936;2023-02-15T11:08:46;8.97;;;7.23;;
9763;SDS011;4921;43.214;27.936;2023-02-15T11:16:27;10.60;;;7.67;;
9763;SDS011;4921;43.214;27.936;2023-02-15T11:19:01;11.23;;;7.67;;
9763;SDS011;4921;43.214;27.936;2023-02-15T11:21:34;9.53;;;7.30;;
9763;SDS011;4921;43.214;27.936;2023-02-15T11:24:07;10.97;;;7.30;;
9763;SDS011;4921;43.214;27.936;2023-02-15T11:26:37;9.50;;;7.77;;
9763;SDS011;4921;43.214;27.936;2023-02-15T11:31:42;9.83;;;8.13;;
9763;SDS011;4921;43.214;27.936;2023-02-15T11:34:13;13.30;;;7.67;;
9763;SDS011;4921;43.214;27.936;2023-02-15T11:36:48;9.23;;;7.67;;
9763;SDS011;4921;43.214;27.936;2023-02-15T11:39:18;11.83;;;7.67;;
9763;SDS011;4921;43.214;27.936;2023-02-15T11:41:49;10.43;;;7.83;;
9763;SDS011;4921;43.214;27.936;2023-02-15T11:44:20;11.87;;;8.47;;
9763;SDS011;4921;43.214;27.936;2023-02-15T11:46:49;10.60;;;8.07;;
9763;SDS011;4921;43.214;27.936;2023-02-15T11:49:22;11.90;;;8.53;;
9763;SDS011;4921;43.214;27.936;2023-02-15T11:51:52;14.50;;;8.60;;
9763;SDS011;4921;43.214;27.936;2023-02-15T11:54:23;10.00;;;7.67;;
9763;SDS011;4921;43.214;27.936;2023-02-15T11:56:54;30.47;;;16.47;;
9763;SDS011;4921;43.214;27.936;2023-02-15T11:59:24;13.40;;;8.70;;
9763;SDS011;4921;43.214;27.936;2023-02-15T12:01:56;9.37;;;7.70;;
9763;SDS011;4921;43.214;27.936;2023-02-15T12:04:25;12.13;;;8.33;;
9763;SDS011;4921;43.214;27.936;2023-02-15T12:06:57;8.50;;;7.60;;
9763;SDS011;4921;43.214;27.936;2023-02-15T12:09:29;10.20;;;8.13;;
9763;SDS011;4921;43.214;27.936;2023-02-15T12:14:49;13.17;;;8.07;;
9763;SDS011;4921;43.214;27.936;2023-02-15T12:17:20;9.50;;;8.50;;
9763;SDS011;4921;43.214;27.936;2023-02-15T12:19:51;13.03;;;8.87;;
9763;SDS011;4921;43.214;27.936;2023-02-15T12:22:22;13.80;;;8.03;;
9763;SDS011;4921;43.214;27.936;2023-02-15T12:24:52;12.23;;;8.30;;
9763;SDS011;4921;43.214;27.936;2023-02-15T12:27:22;8.70;;;7.80;;
9763;SDS011;4921;43.214;27.936;2023-02-15T12:29:53;12.13;;;8.03;;
9763;SDS011;4921;43.214;27.936;2023-02-15T12:32:23;10.50;;;8.30;;
9763;SDS011;4921;43.214;27.936;2023-02-15T12:34:54;11.47;;;8.73;;
9763;SDS011;4921;43.214;27.936;2023-02-15T12:37:27;13.47;;;9.37;;
9763;SDS011;4921;43.214;27.936;2023-02-15T12:39:57;12.03;;;8.90;;
9763;SDS011;4921;43.214;27.936;2023-02-15T12:42:25;12.90;;;8.93;;
9763;SDS011;4921;43.214;27.936;2023-02-15T12:44:55;10.50;;;7.87;;
9763;SDS011;4921;43.214;27.936;2023-02-15T12:47:24;9.47;;;7.80;;
9763;SDS011;4921;43.214;27.936;2023-02-15T12:53:05;12.10;;;8.33;;
9763;SDS011;4921;43.214;27.936;2023-02-15T12:55:33;9.53;;;8.33;;
9763;SDS011;4921;43.214;27.936;2023-02-15T12:58:05;11.70;;;8.43;;
9763;SDS011;4921;43.214;27.936;2023-02-15T13:00:33;10.00;;;9.00;;
9763;SDS011;4921;43.214;27.936;2023-02-15T13:03:00;11.57;;;9.97;;
9763;SDS011;4921;43.214;27.936;2023-02-15T13:05:31;13.07;;;9.70;;
9763;SDS011;4921;43.214;27.936;2023-02-15T13:08:01;13.30;;;10.00;;
9763;SDS011;4921;43.214;27.936;2023-02-15T13:10:35;13.57;;;9.63;;
9763;SDS011;4921;43.214;27.936;2023-02-15T13:13:09;11.90;;;9.20;;
9763;SDS011;4921;43.214;27.936;2023-02-15T13:15:39;11.47;;;9.10;;
9763;SDS011;4921;43.214;27.936;2023-02-15T13:18:10;16.60;;;9.73;;
9763;SDS011;4921;43.214;27.936;2023-02-15T13:20:43;13.90;;;9.90;;
9763;SDS011;4921;43.214;27.936;2023-02-15T13:23:15;14.07;;;10.43;;
9763;SDS011;4921;43.214;27.936;2023-02-15T13:25:52;15.67;;;10.50;;
9763;SDS011;4921;43.214;27.936;2023-02-15T13:28:22;14.10;;;9.93;;
9763;SDS011;4921;43.214;27.936;2023-02-15T13:30:53;13.33;;;9.87;;
9763;SDS011;4921;43.214;27.936;2023-02-15T13:33:23;11.63;;;10.40;;
9763;SDS011;4921;43.214;27.936;2023-02-15T13:35:59;14.23;;;10.13;;
9763;SDS011;4921;43.214;27.936;2023-02-15T13:38:45;12.37;;;10.20;;
9763;SDS011;4921;43.214;27.936;2023-02-15T13:41:16;11.87;;;9.37;;
9763;SDS011;4921;43.214;27.936;2023-02-15T13:43:49;14.03;;;10.47;;
9763;SDS011;4921;43.214;27.936;2023-02-15T13:46:27;15.83;;;10.43;;
9763;SDS011;4921;43.214;27.936;2023-02-15T13:49:10;14.27;;;10.37;;
9763;SDS011;4921;43.214;27.936;2023-02-15T13:51:52;17.10;;;10.33;;
9763;SDS011;4921;43.214;27.936;2023-02-15T13:54:44;15.40;;;10.33;;
9763;SDS011;4921;43.214;27.936;2023-02-15T14:00:16;14.53;;;10.03;;
9763;SDS011;4921;43.214;27.936;2023-02-15T14:02:53;15.77;;;10.53;;
9763;SDS011;4921;43.214;27.936;2023-02-15T14:05:38;15.40;;;10.53;;
9763;SDS011;4921;43.214;27.936;2023-02-15T14:08:24;12.83;;;9.87;;
9763;SDS011;4921;43.214;27.936;2023-02-15T14:11:05;15.37;;;11.00;;
9763;SDS011;4921;43.214;27.936;2023-02-15T14:13:45;12.13;;;10.70;;
9763;SDS011;4921;43.214;27.936;2023-02-15T14:16:24;14.20;;;10.20;;
9763;SDS011;4921;43.214;27.936;2023-02-15T14:19:01;10.43;;;9.43;;
9763;SDS011;4921;43.214;27.936;2023-02-15T14:21:38;14.23;;;11.10;;
9763;SDS011;4921;43.214;27.936;2023-02-15T14:24:21;13.87;;;10.63;;
9763;SDS011;4921;43.214;27.936;2023-02-15T14:26:57;14.97;;;10.77;;
9763;SDS011;4921;43.214;27.936;2023-02-15T14:29:38;15.13;;;11.57;;
9763;SDS011;4921;43.214;27.936;2023-02-15T14:32:13;14.60;;;11.20;;
9763;SDS011;4921;43.214;27.936;2023-02-15T14:34:46;13.57;;;10.47;;
9763;SDS011;4921;43.214;27.936;2023-02-15T14:37:18;16.43;;;10.90;;
9763;SDS011;4921;43.214;27.936;2023-02-15T14:39:53;12.03;;;9.63;;
9763;SDS011;4921;43.214;27.936;2023-02-15T14:42:44;13.97;;;10.67;;
9763;SDS011;4921;43.214;27.936;2023-02-15T14:45:21;11.67;;;9.93;;
9763;SDS011;4921;43.214;27.936;2023-02-15T14:47:55;13.40;;;9.60;;
9763;SDS011;4921;43.214;27.936;2023-02-15T14:50:42;16.87;;;10.00;;
9763;SDS011;4921;43.214;27.936;2023-02-15T14:55:41;11.40;;;9.27;;
9763;SDS011;4921;43.214;27.936;2023-02-15T14:58:10;16.67;;;10.03;;
9763;SDS011;4921;43.214;27.936;2023-02-15T15:00:39;11.23;;;9.50;;
9763;SDS011;4921;43.214;27.936;2023-02-15T15:03:10;14.03;;;9.97;;
9763;SDS011;4921;43.214;27.936;2023-02-15T15:05:48;13.77;;;10.13;;
9763;SDS011;4921;43.214;27.936;2023-02-15T15:08:22;9.80;;;8.80;;
9763;SDS011;4921;43.214;27.936;2023-02-15T15:10:56;18.37;;;9.93;;
9763;SDS011;4921;43.214;27.936;2023-02-15T15:14:04;14.73;;;10.23;;
9763;SDS011;4921;43.214;27.936;2023-02-15T15:16:46;13.23;;;9.00;;
9763;SDS011;4921;43.214;27.936;2023-02-15T15:22:28;15.70;;;9.73;;
9763;SDS011;4921;43.214;27.936;2023-02-15T15:24:56;12.60;;;9.37;;
9763;SDS011;4921;43.214;27.936;2023-02-15T15:27:42;13.80;;;9.67;;
9763;SDS011;4921;43.214;27.936;2023-02-15T15:36:44;11.50;;;9.90;;
9763;SDS011;4921;43.214;27.936;2023-02-15T15:39:41;14.90;;;10.43;;
9763;SDS011;4921;43.214;27.936;2023-02-15T15:42:37;13.20;;;10.43;;
9763;SDS011;4921;43.214;27.936;2023-02-15T15:45:20;16.17;;;10.37;;
9763;SDS011;4921;43.214;27.936;2023-02-15T15:47:58;19.03;;;10.77;;
9763;SDS011;4921;43.214;27.936;2023-02-15T15:50:39;25.83;;;11.63;;
9763;SDS011;4921;43.214;27.936;2023-02-15T15:53:10;17.70;;;12.10;;
9763;SDS011;4921;43.214;27.936;2023-02-15T15:55:46;15.43;;;10.77;;
9763;SDS011;4921;43.214;27.936;2023-02-15T15:58:17;23.20;;;12.73;;
9763;SDS011;4921;43.214;27.936;2023-02-15T16:00:46;26.80;;;13.27;;
9763;SDS011;4921;43.214;27.936;2023-02-15T16:03:16;23.53;;;13.60;;
9763;SDS011;4921;43.214;27.936;2023-02-15T16:05:48;22.87;;;14.50;;
9763;SDS011;4921;43.214;27.936;2023-02-15T16:08:25;20.43;;;14.43;;
9763;SDS011;4921;43.214;27.936;2023-02-15T16:10:53;24.90;;;15.73;;
9763;SDS011;4921;43.214;27.936;2023-02-15T16:13:22;24.20;;;14.77;;
9763;SDS011;4921;43.214;27.936;2023-02-15T16:15:50;27.50;;;15.53;;